Time;durP1;ratioP1;P1;durP2;ratioP2;P2;SDS_P1;SDS_P2;PMS_P1;PMS_P2;Temp;Humidity;BMP_temperature;BMP_pressure;BME280_temperature;BME280_humidity;BME280_pressure;Samples;Min_cycle;Max_cycle;Signal;HPM_P1;HPM_P2
2022/03/06 00:00:27;;;;;;;19.42;10.02;;;6.20;56.80;;;;;;5074104;28;20024;-79
2022/03/06 00:02:53;;;;;;;22.58;10.32;;;6.10;56.50;;;;;;5074017;28;20526;-79
2022/03/06 00:05:19;;;;;;;17.52;10.60;;;6.10;56.00;;;;;;5073857;28;20021;-78
2022/03/06 00:07:45;;;;;;;17.77;10.00;;;6.10;56.10;;;;;;5065642;28;20024;-79
2022/03/06 00:10:11;;;;;;;18.58;10.18;;;6.10;56.60;;;;;;5053976;28;20025;-79
2022/03/06 00:12:37;;;;;;;20.58;11.38;;;6.10;57.10;;;;;;5053892;28;20020;-79
2022/03/06 00:15:04;;;;;;;23.98;11.35;;;6.00;57.40;;;;;;5054109;28;20068;-79
2022/03/06 00:17:29;;;;;;;21.90;11.07;;;6.00;57.80;;;;;;5053652;28;20212;-79
2022/03/06 00:19:55;;;;;;;25.15;11.55;;;5.90;58.30;;;;;;5053973;28;20025;-79
2022/03/06 00:22:21;;;;;;;17.70;10.45;;;5.90;58.80;;;;;;5047209;28;20072;-79
2022/03/06 00:24:47;;;;;;;18.25;10.15;;;5.80;59.20;;;;;;5033856;28;20029;-79
2022/03/06 00:27:12;;;;;;;19.92;10.30;;;5.80;59.40;;;;;;5032476;28;20029;-79
2022/03/06 00:29:38;;;;;;;19.85;10.75;;;5.70;59.40;;;;;;5032510;28;20021;-79
2022/03/06 00:32:04;;;;;;;22.15;11.40;;;5.70;59.80;;;;;;5032624;28;20029;-79
2022/03/06 00:34:30;;;;;;;19.63;9.88;;;5.70;60.20;;;;;;5033773;28;20096;-79
2022/03/06 00:36:56;;;;;;;16.67;10.15;;;5.70;60.50;;;;;;5033904;28;20033;-79
2022/03/06 00:39:21;;;;;;;18.80;10.50;;;5.80;60.70;;;;;;5032647;28;20487;-79
2022/03/06 00:41:47;;;;;;;20.65;9.68;;;5.80;60.90;;;;;;5042801;28;20021;-79
2022/03/06 00:44:13;;;;;;;19.17;10.52;;;5.70;60.90;;;;;;5053535;28;20094;-79
2022/03/06 00:46:39;;;;;;;22.27;10.63;;;5.70;60.90;;;;;;5053392;28;20077;-79
2022/03/06 00:49:05;;;;;;;18.42;9.50;;;5.60;61.20;;;;;;5053813;28;20474;-78
2022/03/06 00:51:31;;;;;;;18.95;10.68;;;5.60;61.30;;;;;;5073237;28;20033;-79
2022/03/06 00:53:57;;;;;;;19.60;10.23;;;5.50;61.60;;;;;;5070729;28;20025;-79
2022/03/06 00:56:22;;;;;;;17.48;10.73;;;5.50;61.80;;;;;;5059621;28;20032;-79
2022/03/06 00:58:48;;;;;;;19.85;10.00;;;5.60;61.90;;;;;;5053210;28;20024;-79
2022/03/06 01:01:14;;;;;;;17.90;9.38;;;5.60;62.00;;;;;;5052214;28;20083;-79
2022/03/06 01:03:40;;;;;;;19.15;9.45;;;5.60;61.90;;;;;;5066993;28;20020;-78
2022/03/06 01:06:06;;;;;;;21.38;10.57;;;5.60;62.00;;;;;;5053506;28;20564;-79
2022/03/06 01:08:32;;;;;;;20.77;10.10;;;5.60;62.10;;;;;;5055505;28;20070;-79
2022/03/06 01:10:57;;;;;;;20.77;10.63;;;5.60;62.00;;;;;;5068227;28;20021;-79
2022/03/06 01:13:23;;;;;;;20.88;10.43;;;5.60;61.50;;;;;;5055916;28;20021;-79
2022/03/06 01:15:49;;;;;;;18.58;10.55;;;5.60;61.70;;;;;;5057150;28;20088;-79
2022/03/06 01:18:15;;;;;;;20.88;10.27;;;5.60;61.60;;;;;;5056913;28;20021;-78
2022/03/06 01:20:41;;;;;;;19.85;10.45;;;5.60;61.70;;;;;;5059927;28;20021;-79
2022/03/06 01:23:08;;;;;;;18.33;10.18;;;5.60;61.50;;;;;;5059558;28;21431;-79
2022/03/06 01:25:34;;;;;;;23.75;10.57;;;5.60;61.60;;;;;;5063187;28;20421;-79
2022/03/06 01:28:01;;;;;;;19.75;9.90;;;5.60;61.50;;;;;;5068522;28;20029;-78
2022/03/06 01:30:27;;;;;;;18.02;9.85;;;5.70;61.50;;;;;;5057034;28;20021;-79
2022/03/06 01:32:53;;;;;;;20.48;10.15;;;5.60;61.70;;;;;;5057206;28;20025;-79
2022/03/06 01:35:20;;;;;;;19.13;10.48;;;5.60;61.70;;;;;;5057068;28;20119;-79
2022/03/06 01:37:46;;;;;;;18.85;10.52;;;5.50;61.70;;;;;;5056759;28;20033;-79
2022/03/06 01:40:14;;;;;;;20.80;11.32;;;5.50;61.90;;;;;;5064167;28;20090;-79
2022/03/06 01:42:42;;;;;;;20.23;10.98;;;5.40;61.90;;;;;;5076827;28;20115;-79
2022/03/06 01:45:09;;;;;;;21.27;11.02;;;5.50;61.90;;;;;;5057462;28;20048;-79
2022/03/06 01:47:47;;;;;;;21.83;10.85;;;5.50;62.60;;;;;;5056510;28;20021;-79
2022/03/06 01:50:16;;;;;;;19.67;10.80;;;5.50;61.70;;;;;;5055474;28;20032;-79
2022/03/06 01:52:43;;;;;;;19.15;10.48;;;5.50;61.80;;;;;;5056554;28;20025;-79
2022/03/06 01:55:10;;;;;;;24.90;10.27;;;5.60;62.20;;;;;;5071533;28;20028;-79
2022/03/06 01:57:39;;;;;;;25.45;11.82;;;5.60;62.10;;;;;;5075224;28;20406;-79
2022/03/06 02:00:08;;;;;;;16.80;10.75;;;5.50;61.80;;;;;;5076532;28;20032;-79
2022/03/06 02:02:34;;;;;;;20.55;10.70;;;5.50;61.90;;;;;;5076512;28;20031;-79
2022/03/06 02:05:00;;;;;;;20.38;10.43;;;5.50;62.00;;;;;;5076214;28;20036;-79
2022/03/06 02:07:27;;;;;;;19.80;10.88;;;5.50;61.90;;;;;;5076224;28;20489;-79
2022/03/06 02:09:53;;;;;;;18.08;9.88;;;5.50;61.60;;;;;;5076496;28;20104;-79
2022/03/06 02:12:26;;;;;;;20.90;10.25;;;5.50;61.80;;;;;;5076195;28;20096;-79
2022/03/06 02:14:57;;;;;;;23.02;10.32;;;5.50;62.00;;;;;;5074727;28;20024;-79
2022/03/06 02:17:24;;;;;;;17.55;9.95;;;5.50;62.10;;;;;;5061926;28;20099;-79
2022/03/06 02:19:54;;;;;;;19.85;10.02;;;5.50;62.00;;;;;;5047217;28;20064;-79
2022/03/06 02:22:22;;;;;;;20.38;10.20;;;5.60;62.20;;;;;;5049491;28;20025;-79
2022/03/06 02:24:48;;;;;;;19.85;10.45;;;5.60;62.20;;;;;;5039100;28;20061;-79
2022/03/06 02:27:14;;;;;;;22.45;11.05;;;5.60;62.10;;;;;;5061794;28;20063;-79
2022/03/06 02:29:41;;;;;;;21.50;10.82;;;5.60;62.20;;;;;;5075921;28;20028;-79
2022/03/06 02:32:12;;;;;;;21.52;10.95;;;5.60;62.20;;;;;;5075993;28;20024;-79
2022/03/06 02:34:39;;;;;;;21.83;10.85;;;5.60;62.60;;;;;;5076021;28;20467;-79
2022/03/06 02:37:05;;;;;;;16.83;10.65;;;5.60;62.80;;;;;;5074480;28;20390;-79
2022/03/06 02:39:31;;;;;;;18.27;10.07;;;5.50;62.70;;;;;;5075724;28;20031;-79
2022/03/06 02:41:57;;;;;;;21.55;10.88;;;5.60;63.60;;;;;;5075567;28;20025;-79
2022/03/06 02:44:22;;;;;;;20.92;11.15;;;5.60;62.70;;;;;;5075652;28;20663;-79
2022/03/06 02:46:49;;;;;;;21.27;10.52;;;5.60;63.00;;;;;;5075343;28;20040;-79
2022/03/06 02:49:17;;;;;;;17.67;10.25;;;5.60;63.00;;;;;;5075415;28;20174;-79
2022/03/06 02:51:44;;;;;;;18.77;9.27;;;5.60;63.10;;;;;;5055677;28;20098;-79
2022/03/06 02:54:11;;;;;;;19.50;11.15;;;5.60;63.30;;;;;;5055305;28;20112;-79
2022/03/06 02:56:37;;;;;;;20.15;10.63;;;5.60;63.50;;;;;;5054093;28;20672;-79
2022/03/06 02:59:04;;;;;;;19.85;10.05;;;5.60;63.20;;;;;;5075005;28;20474;-79
2022/03/06 03:01:30;;;;;;;19.13;10.95;;;5.60;63.10;;;;;;5064152;28;20039;-79
2022/03/06 03:03:56;;;;;;;21.90;10.45;;;5.50;63.10;;;;;;5075546;28;20103;-79
2022/03/06 03:06:22;;;;;;;18.83;10.48;;;5.60;63.30;;;;;;5075432;28;20549;-79
2022/03/06 03:08:48;;;;;;;21.23;10.68;;;5.60;63.40;;;;;;5075216;28;20099;-79
2022/03/06 03:11:15;;;;;;;20.35;10.63;;;5.60;63.40;;;;;;5075303;28;20008;-79
2022/03/06 03:13:41;;;;;;;18.38;10.50;;;5.60;63.40;;;;;;5059074;28;20079;-79
2022/03/06 03:16:07;;;;;;;19.30;10.55;;;5.60;64.10;;;;;;5054970;28;20103;-79
2022/03/06 03:18:33;;;;;;;17.05;9.82;;;5.60;64.70;;;;;;5055144;28;20036;-79
2022/03/06 03:20:59;;;;;;;19.58;10.45;;;5.60;64.70;;;;;;5067853;28;20032;-79
2022/03/06 03:23:25;;;;;;;20.88;10.45;;;5.50;64.90;;;;;;5069380;28;20379;-79
2022/03/06 03:25:50;;;;;;;24.75;10.77;;;5.50;65.30;;;;;;5053475;28;20029;-79
2022/03/06 03:28:16;;;;;;;20.10;10.70;;;5.50;65.30;;;;;;5055000;28;20174;-79
2022/03/06 03:30:42;;;;;;;20.00;10.18;;;5.60;65.20;;;;;;5053975;28;20021;-79
2022/03/06 03:33:08;;;;;;;21.85;10.68;;;5.60;65.30;;;;;;5054865;28;20024;-79
2022/03/06 03:35:34;;;;;;;20.38;10.52;;;5.60;65.80;;;;;;5041101;28;20021;-79
2022/03/06 03:37:59;;;;;;;19.60;11.50;;;5.70;65.80;;;;;;5034668;28;20052;-79
2022/03/06 03:40:25;;;;;;;25.75;11.73;;;5.60;65.50;;;;;;5034783;28;20539;-79
2022/03/06 03:42:51;;;;;;;20.90;11.27;;;5.60;65.90;;;;;;5034530;28;20021;-78
2022/03/06 03:45:17;;;;;;;19.52;10.73;;;5.60;65.60;;;;;;5034349;28;20051;-79
2022/03/06 03:47:42;;;;;;;19.55;11.25;;;5.60;64.90;;;;;;5033154;28;20068;-79
2022/03/06 03:50:08;;;;;;;22.52;11.00;;;5.60;64.90;;;;;;5034450;28;20022;-79
2022/03/06 03:52:34;;;;;;;25.38;11.13;;;5.60;65.00;;;;;;5033343;28;20021;-79
2022/03/06 03:55:00;;;;;;;19.70;11.27;;;5.60;65.10;;;;;;5034243;28;20475;-79
2022/03/06 03:57:26;;;;;;;23.92;12.10;;;5.60;65.50;;;;;;5034163;28;20079;-79
2022/03/06 03:59:52;;;;;;;18.73;10.27;;;5.70;65.50;;;;;;5045687;28;20013;-78
2022/03/06 04:02:17;;;;;;;18.90;10.45;;;5.70;65.40;;;;;;5073071;28;20021;-78
2022/03/06 04:04:43;;;;;;;22.90;11.05;;;5.70;65.70;;;;;;5074115;28;20028;-78
2022/03/06 04:07:09;;;;;;;21.77;11.25;;;5.70;65.90;;;;;;5073812;28;20115;-79
2022/03/06 04:09:35;;;;;;;18.13;10.82;;;5.60;66.20;;;;;;5056951;28;20024;-79
2022/03/06 04:12:01;;;;;;;18.45;10.20;;;5.60;66.30;;;;;;5064730;28;20462;-79
2022/03/06 04:14:27;;;;;;;23.17;10.98;;;5.70;66.10;;;;;;5053882;28;20021;-79
2022/03/06 04:16:52;;;;;;;18.52;10.95;;;5.70;66.20;;;;;;5066069;28;20029;-78
2022/03/06 04:19:18;;;;;;;23.50;11.68;;;5.70;66.20;;;;;;5034136;28;20036;-79
2022/03/06 04:21:44;;;;;;;19.77;10.60;;;5.80;65.60;;;;;;5062830;28;20085;-78
2022/03/06 04:24:10;;;;;;;20.92;11.00;;;5.70;65.70;;;;;;5053918;28;20112;-79
2022/03/06 04:26:36;;;;;;;21.30;10.77;;;5.80;65.90;;;;;;5053692;28;20391;-78
2022/03/06 04:29:02;;;;;;;21.20;11.00;;;5.80;65.70;;;;;;5071142;28;20020;-78
2022/03/06 04:31:28;;;;;;;20.27;11.35;;;5.80;65.30;;;;;;5073973;28;20051;-78
2022/03/06 04:33:54;;;;;;;24.75;11.80;;;5.80;65.30;;;;;;5074140;28;20470;-78
2022/03/06 04:36:20;;;;;;;20.67;10.95;;;5.70;64.80;;;;;;5073943;28;20028;-78
2022/03/06 04:38:46;;;;;;;29.70;11.10;;;5.70;65.40;;;;;;5073790;28;20024;-78
2022/03/06 04:41:11;;;;;;;22.15;10.88;;;5.70;65.40;;;;;;5072528;28;20028;-79
2022/03/06 04:43:38;;;;;;;21.95;11.82;;;5.70;65.30;;;;;;5057422;28;20051;-79
2022/03/06 04:46:04;;;;;;;19.85;10.55;;;5.70;65.20;;;;;;5055965;28;20052;-78
2022/03/06 04:48:30;;;;;;;23.65;11.63;;;5.70;65.10;;;;;;5053755;28;20029;-78
2022/03/06 04:50:56;;;;;;;22.17;11.43;;;5.70;64.90;;;;;;5067102;28;20025;-79
2022/03/06 04:53:22;;;;;;;20.20;10.65;;;5.70;65.20;;;;;;5056527;28;20545;-79
2022/03/06 04:55:47;;;;;;;17.27;10.13;;;5.70;65.20;;;;;;5062516;28;20057;-79
2022/03/06 04:58:13;;;;;;;19.27;10.38;;;5.60;65.30;;;;;;5058528;28;20432;-79
2022/03/06 05:00:39;;;;;;;18.92;10.02;;;5.60;65.80;;;;;;5053456;28;20475;-79
2022/03/06 05:03:05;;;;;;;21.40;11.20;;;5.60;65.80;;;;;;5058199;28;20092;-79
2022/03/06 05:05:31;;;;;;;23.15;11.90;;;5.60;66.00;;;;;;5066274;28;20379;-79
2022/03/06 05:07:56;;;;;;;17.33;10.60;;;5.60;66.00;;;;;;5061570;28;20025;-79
2022/03/06 05:10:22;;;;;;;20.70;10.48;;;5.70;66.10;;;;;;5066986;28;20035;-79
2022/03/06 05:12:48;;;;;;;18.95;10.63;;;5.70;65.90;;;;;;5070809;28;20490;-79
2022/03/06 05:15:14;;;;;;;21.40;11.18;;;5.60;65.60;;;;;;5073638;28;20025;-79
2022/03/06 05:17:41;;;;;;;19.35;11.05;;;5.60;65.60;;;;;;5070347;28;20089;-79
2022/03/06 05:20:08;;;;;;;23.70;11.27;;;5.70;65.80;;;;;;5051941;28;20029;-79
2022/03/06 05:22:34;;;;;;;19.17;10.80;;;5.70;66.00;;;;;;5045001;28;20151;-79
2022/03/06 05:25:00;;;;;;;21.35;11.00;;;5.70;66.30;;;;;;5032079;28;20025;-79
2022/03/06 05:27:26;;;;;;;21.55;11.55;;;5.70;66.90;;;;;;5033143;28;20030;-79
2022/03/06 05:29:52;;;;;;;24.30;10.70;;;5.70;67.00;;;;;;5033318;28;20036;-79
2022/03/06 05:32:18;;;;;;;17.42;9.82;;;5.60;66.50;;;;;;5033261;28;20026;-79
2022/03/06 05:34:44;;;;;;;19.95;10.27;;;5.60;66.30;;;;;;5033342;28;20113;-79
2022/03/06 05:37:10;;;;;;;18.15;10.27;;;5.60;66.30;;;;;;5031859;28;20087;-79
2022/03/06 05:39:35;;;;;;;17.77;11.38;;;5.60;66.60;;;;;;5033178;28;20071;-79
2022/03/06 05:42:02;;;;;;;20.80;10.80;;;5.60;66.80;;;;;;5033217;28;20057;-79
2022/03/06 05:44:28;;;;;;;19.17;10.65;;;5.60;66.60;;;;;;5033271;28;20548;-79
2022/03/06 05:46:54;;;;;;;23.10;10.80;;;5.50;66.40;;;;;;5031528;28;20049;-79
2022/03/06 05:49:19;;;;;;;18.25;10.43;;;5.60;67.10;;;;;;5051218;28;20060;-79
2022/03/06 05:51:45;;;;;;;20.10;10.35;;;5.60;67.50;;;;;;5051139;28;20029;-79
2022/03/06 05:54:11;;;;;;;19.17;10.90;;;5.60;67.70;;;;;;5035890;28;20026;-79
2022/03/06 05:56:39;;;;;;;21.27;10.07;;;5.60;67.80;;;;;;5070725;28;20032;-79
2022/03/06 05:59:05;;;;;;;20.75;11.00;;;5.50;67.50;;;;;;5056622;28;20083;-79
2022/03/06 06:01:31;;;;;;;21.33;10.88;;;5.50;67.20;;;;;;5056541;28;20029;-79
2022/03/06 06:03:58;;;;;;;20.95;11.48;;;5.60;67.20;;;;;;5060299;28;20020;-79
2022/03/06 06:06:25;;;;;;;17.38;9.48;;;5.60;66.90;;;;;;5061849;28;20028;-79
2022/03/06 06:08:51;;;;;;;19.15;10.30;;;5.60;67.10;;;;;;5056358;28;20032;-79
2022/03/06 06:11:18;;;;;;;20.35;10.13;;;5.60;66.80;;;;;;5065547;28;20017;-79
2022/03/06 06:13:44;;;;;;;16.52;10.07;;;5.60;67.20;;;;;;5076279;28;20100;-79
2022/03/06 06:16:10;;;;;;;20.13;10.05;;;5.60;68.00;;;;;;5060612;28;20032;-79
2022/03/06 06:18:36;;;;;;;20.27;10.07;;;5.50;67.70;;;;;;5062991;28;20079;-79
2022/03/06 06:21:02;;;;;;;18.77;9.95;;;5.60;67.60;;;;;;5055819;28;20028;-79
2022/03/06 06:23:28;;;;;;;22.10;9.73;;;5.60;67.30;;;;;;5054532;28;20426;-79
2022/03/06 06:25:54;;;;;;;20.90;10.82;;;5.60;67.50;;;;;;5061294;28;20028;-79
2022/03/06 06:28:19;;;;;;;22.27;11.02;;;5.50;67.80;;;;;;5076086;28;20050;-79
2022/03/06 06:30:45;;;;;;;23.33;10.18;;;5.50;67.90;;;;;;5062729;28;20025;-79
2022/03/06 06:33:11;;;;;;;20.65;10.50;;;5.50;67.70;;;;;;5055373;28;20516;-79
2022/03/06 06:35:37;;;;;;;16.60;10.18;;;5.60;67.70;;;;;;5055321;28;20028;-79
2022/03/06 06:38:04;;;;;;;20.73;11.00;;;5.60;67.60;;;;;;5055139;28;20095;-79
2022/03/06 06:40:30;;;;;;;18.20;10.70;;;5.70;67.80;;;;;;5062677;28;20016;-79
2022/03/06 06:42:56;;;;;;;19.90;10.07;;;5.60;67.60;;;;;;5064002;28;20093;-79
2022/03/06 06:45:22;;;;;;;20.20;10.32;;;5.70;67.70;;;;;;5054502;28;20094;-79
2022/03/06 06:47:48;;;;;;;18.02;10.13;;;5.70;67.50;;;;;;5055375;28;20032;-79
2022/03/06 06:50:14;;;;;;;17.30;10.15;;;5.70;67.70;;;;;;5055242;28;20029;-79
2022/03/06 06:52:40;;;;;;;18.77;10.60;;;5.80;67.60;;;;;;5066172;28;20040;-79
2022/03/06 06:55:07;;;;;;;20.13;10.43;;;5.80;67.60;;;;;;5067774;28;20017;-79
2022/03/06 06:57:33;;;;;;;16.08;9.38;;;5.80;67.50;;;;;;5075601;28;20024;-79
2022/03/06 06:59:59;;;;;;;18.08;10.20;;;5.80;67.60;;;;;;5075397;28;20017;-79
2022/03/06 07:02:25;;;;;;;18.15;10.18;;;5.80;67.70;;;;;;5075471;28;20074;-79
2022/03/06 07:04:51;;;;;;;16.65;10.10;;;5.90;67.70;;;;;;5071030;28;20418;-79
2022/03/06 07:07:18;;;;;;;16.02;9.38;;;5.90;67.50;;;;;;5055028;28;20104;-79
2022/03/06 07:09:44;;;;;;;18.27;9.93;;;5.90;67.20;;;;;;5054097;28;20474;-79
2022/03/06 07:12:11;;;;;;;17.40;10.52;;;5.90;67.50;;;;;;5070190;28;20364;-79
2022/03/06 07:14:37;;;;;;;16.98;9.20;;;5.90;67.70;;;;;;5064335;28;20070;-79
2022/03/06 07:17:03;;;;;;;17.33;9.60;;;5.90;68.00;;;;;;5073382;28;20028;-79
2022/03/06 07:19:29;;;;;;;19.85;10.68;;;5.90;68.20;;;;;;5059906;28;20391;-79
2022/03/06 07:21:55;;;;;;;18.65;10.15;;;5.90;68.00;;;;;;5054808;28;20029;-79
2022/03/06 07:24:21;;;;;;;16.98;10.35;;;6.00;67.70;;;;;;5054884;28;20040;-79
2022/03/06 07:26:46;;;;;;;17.08;9.38;;;6.00;67.20;;;;;;5054699;28;20115;-79
2022/03/06 07:29:12;;;;;;;20.23;10.80;;;6.00;67.60;;;;;;5054720;28;20021;-79
2022/03/06 07:31:39;;;;;;;22.60;10.85;;;6.10;66.90;;;;;;5054803;28;20060;-79
2022/03/06 07:34:04;;;;;;;22.35;11.50;;;6.10;66.40;;;;;;5070872;28;20487;-79
2022/03/06 07:36:30;;;;;;;18.30;9.77;;;6.20;66.40;;;;;;5055496;28;20052;-79
2022/03/06 07:38:56;;;;;;;15.98;9.75;;;6.30;65.00;;;;;;5072690;28;20367;-79
2022/03/06 07:41:21;;;;;;;18.48;10.02;;;6.30;63.90;;;;;;5051687;28;20479;-79
2022/03/06 07:43:47;;;;;;;17.40;9.07;;;6.30;62.90;;;;;;5054350;28;20483;-79
2022/03/06 07:46:13;;;;;;;14.65;9.20;;;6.30;61.40;;;;;;5066381;28;20052;-79
2022/03/06 07:48:39;;;;;;;17.25;9.13;;;6.30;59.70;;;;;;5065910;28;20029;-79
2022/03/06 07:51:05;;;;;;;15.07;8.18;;;6.30;60.30;;;;;;5065988;28;20024;-79
2022/03/06 07:53:31;;;;;;;16.60;9.95;;;6.40;58.90;;;;;;5054487;28;20111;-79
2022/03/06 07:55:56;;;;;;;15.13;8.02;;;6.50;58.00;;;;;;5062796;28;20089;-79
2022/03/06 07:58:22;;;;;;;15.43;8.23;;;6.50;57.00;;;;;;5059580;28;20116;-79
2022/03/06 08:00:48;;;;;;;14.95;8.02;;;6.50;56.90;;;;;;5054152;28;20029;-79
2022/03/06 08:03:13;;;;;;;12.40;7.78;;;6.50;56.90;;;;;;5052884;28;20053;-79
2022/03/06 08:05:39;;;;;;;13.80;8.65;;;6.60;56.30;;;;;;5032575;28;20033;-79
2022/03/06 08:08:05;;;;;;;13.32;7.63;;;6.60;55.90;;;;;;5039052;28;20019;-79
2022/03/06 08:10:31;;;;;;;13.77;7.68;;;6.70;56.50;;;;;;5059522;28;20099;-78
2022/03/06 08:12:57;;;;;;;11.82;7.78;;;6.80;55.70;;;;;;5053900;28;20021;-79
2022/03/06 08:15:23;;;;;;;13.52;7.85;;;6.80;56.00;;;;;;5042536;28;20422;-79
2022/03/06 08:17:48;;;;;;;12.55;8.15;;;6.90;56.80;;;;;;5033538;28;20020;-78
2022/03/06 08:20:14;;;;;;;13.45;7.88;;;6.90;56.10;;;;;;5034421;28;20021;-79
2022/03/06 08:22:40;;;;;;;13.90;7.35;;;7.00;55.30;;;;;;5040550;28;20016;-79
2022/03/06 08:25:07;;;;;;;9.82;6.38;;;7.10;55.00;;;;;;5053781;28;20028;-79
2022/03/06 08:27:33;;;;;;;11.52;6.90;;;7.00;54.60;;;;;;5047538;28;20474;-79
2022/03/06 08:30:00;;;;;;;13.55;7.75;;;7.10;55.90;;;;;;5073840;28;20070;-79
2022/03/06 08:32:26;;;;;;;12.85;7.50;;;7.10;54.70;;;;;;5062708;28;20021;-78
2022/03/06 08:34:51;;;;;;;15.32;7.15;;;7.20;53.80;;;;;;5048673;28;20027;-73
2022/03/06 08:37:18;;;;;;;13.32;7.63;;;7.20;53.60;;;;;;5048081;28;20020;-73
2022/03/06 08:39:46;;;;;;;12.95;8.02;;;7.20;54.30;;;;;;5058312;28;20052;-73
2022/03/06 08:42:12;;;;;;;10.73;6.85;;;7.30;54.60;;;;;;5059004;28;20021;-73
2022/03/06 08:44:38;;;;;;;14.60;7.80;;;7.30;53.80;;;;;;5062194;28;20075;-73
2022/03/06 08:47:04;;;;;;;13.70;7.63;;;7.40;53.80;;;;;;5054945;28;20025;-79
2022/03/06 08:49:29;;;;;;;12.02;6.78;;;7.30;52.50;;;;;;5066197;28;20036;-79
2022/03/06 08:51:55;;;;;;;11.88;6.78;;;7.40;53.10;;;;;;5067554;28;20025;-79
2022/03/06 08:54:21;;;;;;;10.93;6.82;;;7.40;53.10;;;;;;5073308;28;20054;-79
2022/03/06 08:56:47;;;;;;;15.32;7.32;;;7.40;52.80;;;;;;5064349;28;20035;-79
2022/03/06 08:59:13;;;;;;;15.90;7.28;;;7.50;53.90;;;;;;5064975;28;20025;-79
2022/03/06 09:01:38;;;;;;;11.20;6.57;;;7.50;52.30;;;;;;5066871;28;20493;-79
2022/03/06 09:04:05;;;;;;;11.30;6.97;;;7.50;53.00;;;;;;5055307;28;20031;-79
2022/03/06 09:06:31;;;;;;;13.80;6.65;;;7.50;51.90;;;;;;5053118;28;20063;-79
2022/03/06 09:08:57;;;;;;;11.88;6.60;;;7.50;51.80;;;;;;5072180;28;20025;-80
2022/03/06 09:11:23;;;;;;;15.15;8.27;;;7.50;52.40;;;;;;5071829;28;20020;-79
2022/03/06 09:13:48;;;;;;;12.55;7.68;;;7.60;52.30;;;;;;5073242;28;20543;-79
2022/03/06 09:16:14;;;;;;;15.70;8.30;;;7.60;53.60;;;;;;5068155;28;20112;-79
2022/03/06 09:18:40;;;;;;;17.92;9.73;;;7.60;53.30;;;;;;5061629;28;20062;-80
2022/03/06 09:21:06;;;;;;;17.65;9.95;;;7.60;53.40;;;;;;5073280;28;20082;-79
2022/03/06 09:23:32;;;;;;;16.40;8.57;;;7.60;54.40;;;;;;5073167;28;20033;-80
2022/03/06 09:25:57;;;;;;;17.90;9.07;;;7.70;54.30;;;;;;5064080;28;20052;-79
2022/03/06 09:28:23;;;;;;;15.77;7.38;;;7.60;53.50;;;;;;5053117;28;20056;-79
2022/03/06 09:30:49;;;;;;;21.67;9.10;;;7.70;54.20;;;;;;5072412;28;20401;-80
2022/03/06 09:33:14;;;;;;;20.85;10.32;;;7.70;54.50;;;;;;5059577;28;20478;-79
2022/03/06 09:35:41;;;;;;;17.90;9.98;;;7.70;56.00;;;;;;5068325;28;20470;-79
2022/03/06 09:38:07;;;;;;;18.90;10.18;;;7.60;55.70;;;;;;5057618;28;20036;-80
2022/03/06 09:40:33;;;;;;;16.85;9.07;;;7.60;55.80;;;;;;5069611;28;20036;-79
2022/03/06 09:42:58;;;;;;;15.43;9.82;;;7.70;55.50;;;;;;5065597;28;20021;-78
2022/03/06 09:45:26;;;;;;;16.67;9.68;;;7.70;54.60;;;;;;5071489;28;20405;-80
2022/03/06 09:47:53;;;;;;;13.88;8.27;;;7.70;54.00;;;;;;5061172;28;20618;-77
2022/03/06 09:50:20;;;;;;;14.63;8.82;;;7.80;55.00;;;;;;5064993;28;20019;-78
2022/03/06 09:52:46;;;;;;;15.65;9.30;;;7.80;54.30;;;;;;5057547;28;20018;-78
2022/03/06 09:55:12;;;;;;;20.13;9.25;;;7.80;53.90;;;;;;5068357;28;20023;-78
2022/03/06 09:57:38;;;;;;;16.85;9.73;;;7.80;54.50;;;;;;5065864;28;20023;-81
2022/03/06 10:00:06;;;;;;;17.48;9.32;;;7.90;55.30;;;;;;5073192;28;20489;-80
2022/03/06 10:02:49;;;;;;;18.55;9.43;;;8.00;55.60;;;;;;5059453;28;20021;-78
2022/03/06 10:05:29;;;;;;;19.58;9.13;;;8.00;55.00;;;;;;5054718;28;20015;-78
2022/03/06 10:08:14;;;;;;;17.65;9.38;;;8.10;54.20;;;;;;5068280;28;20056;-81
2022/03/06 10:10:40;;;;;;;15.25;9.02;;;8.10;53.80;;;;;;5073514;28;20569;-80
2022/03/06 10:13:28;;;;;;;16.90;8.80;;;8.10;53.50;;;;;;5059061;28;20092;-81
2022/03/06 10:16:06;;;;;;;18.52;9.07;;;8.10;52.60;;;;;;5068469;28;20140;-82
2022/03/06 10:18:44;;;;;;;12.88;8.27;;;8.10;52.90;;;;;;5066740;28;20516;-81
2022/03/06 10:21:14;;;;;;;14.90;8.90;;;8.10;52.80;;;;;;5060326;28;20051;-73
2022/03/06 10:23:40;;;;;;;12.68;8.57;;;8.00;51.70;;;;;;5067560;28;20454;-74
2022/03/06 10:26:09;;;;;;;14.05;9.05;;;8.10;52.20;;;;;;5065683;28;20026;-74
2022/03/06 10:28:43;;;;;;;14.50;8.73;;;8.20;52.10;;;;;;5065721;28;20021;-74
2022/03/06 10:31:09;;;;;;;17.40;9.23;;;8.30;53.00;;;;;;5068425;28;20096;-74
2022/03/06 10:33:35;;;;;;;16.23;9.02;;;8.40;52.80;;;;;;5060143;28;20099;-74
2022/03/06 10:36:02;;;;;;;16.42;8.60;;;8.40;52.80;;;;;;5064014;28;20025;-74
2022/03/06 10:38:35;;;;;;;16.88;9.13;;;8.50;53.80;;;;;;5063400;28;20028;-74
2022/03/06 10:41:19;;;;;;;20.58;9.25;;;8.50;53.00;;;;;;5060540;28;20033;-73
2022/03/06 10:43:45;;;;;;;12.63;8.15;;;8.50;52.40;;;;;;5062514;28;20671;-73
2022/03/06 10:46:17;;;;;;;15.80;8.55;;;8.40;52.30;;;;;;5061412;28;20048;-73
2022/03/06 10:48:53;;;;;;;27.55;16.55;;;8.40;52.50;;;;;;5063223;28;20017;-73
2022/03/06 10:51:20;;;;;;;24.88;15.07;;;8.60;69.40;;;;;;5060362;28;20390;-73
2022/03/06 10:53:52;;;;;;;20.05;11.00;;;9.00;76.30;;;;;;5064203;28;20466;-73
2022/03/06 10:56:18;;;;;;;19.25;11.93;;;9.00;65.10;;;;;;5064982;28;20036;-73
2022/03/06 10:58:45;;;;;;;18.67;10.45;;;9.10;63.80;;;;;;5062253;28;20099;-73
2022/03/06 11:01:12;;;;;;;23.70;12.80;;;9.10;61.60;;;;;;5065164;28;20029;-73
2022/03/06 11:03:39;;;;;;;20.95;11.13;;;9.20;65.90;;;;;;5063946;28;20025;-74
2022/03/06 11:06:07;;;;;;;17.85;10.02;;;9.10;56.80;;;;;;5063992;28;20029;-74
2022/03/06 11:08:34;;;;;;;24.55;12.93;;;8.90;52.60;;;;;;5062867;28;20640;-73
2022/03/06 11:11:00;;;;;;;18.15;10.07;;;8.80;51.90;;;;;;5061465;28;20020;-74
2022/03/06 11:13:29;;;;;;;18.52;9.85;;;8.90;52.20;;;;;;5064072;28;20024;-74
2022/03/06 11:15:57;;;;;;;17.83;10.48;;;9.00;51.90;;;;;;5064478;28;20033;-74
2022/03/06 11:18:24;;;;;;;17.42;9.48;;;9.10;51.50;;;;;;5064373;28;20052;-73
2022/03/06 11:20:52;;;;;;;15.82;8.68;;;9.20;51.80;;;;;;5062856;28;20029;-73
2022/03/06 11:23:38;;;;;;;14.98;8.48;;;9.20;52.30;;;;;;5060259;28;20029;-74
2022/03/06 11:26:19;;;;;;;19.48;10.32;;;9.30;54.00;;;;;;5072827;28;20158;-78
2022/03/06 11:29:16;;;;;;;22.40;12.60;;;9.20;51.60;;;;;;5074287;28;20055;-78
2022/03/06 11:31:50;;;;;;;19.45;11.05;;;9.20;52.90;;;;;;5074444;28;20024;-78
2022/03/06 11:34:27;;;;;;;21.55;10.88;;;9.10;53.00;;;;;;5063878;28;20025;-78
2022/03/06 11:36:55;;;;;;;21.40;10.90;;;9.10;53.70;;;;;;5072913;28;20037;-78
2022/03/06 11:39:32;;;;;;;21.17;11.48;;;9.00;54.00;;;;;;5074416;28;20021;-78
2022/03/06 11:42:04;;;;;;;21.08;11.15;;;8.90;53.50;;;;;;5074415;28;20639;-78
2022/03/06 11:44:49;;;;;;;20.23;10.85;;;9.00;53.50;;;;;;5072895;28;20029;-78
2022/03/06 11:47:23;;;;;;;17.50;10.73;;;9.10;54.90;;;;;;5062767;28;20082;-78
2022/03/06 11:49:53;;;;;;;21.40;10.35;;;9.20;53.30;;;;;;5071652;28;20028;-78
2022/03/06 11:52:33;;;;;;;21.65;11.02;;;9.20;53.00;;;;;;5053841;28;20017;-78
2022/03/06 11:55:00;;;;;;;18.83;10.20;;;9.00;52.30;;;;;;5054151;28;20536;-78
2022/03/06 11:57:42;;;;;;;20.90;11.45;;;9.00;52.90;;;;;;5055769;28;20027;-78
2022/03/06 12:00:20;;;;;;;20.35;10.75;;;9.10;53.20;;;;;;5074123;28;20058;-78
2022/03/06 12:02:51;;;;;;;19.00;10.82;;;9.20;53.20;;;;;;5073709;28;20029;-78
2022/03/06 12:05:20;;;;;;;20.97;10.47;;;9.40;53.90;;;;;;5074041;28;20025;-78
2022/03/06 12:07:47;;;;;;;18.65;10.98;;;9.40;53.20;;;;;;5073489;28;20033;-78
2022/03/06 12:10:14;;;;;;;24.98;11.73;;;9.40;52.60;;;;;;5073724;28;20056;-78
2022/03/06 12:12:41;;;;;;;18.40;10.10;;;9.50;52.00;;;;;;5072483;28;20504;-78
2022/03/06 12:15:25;;;;;;;17.65;10.30;;;9.60;52.80;;;;;;5065045;28;20068;-78
2022/03/06 12:17:50;;;;;;;19.25;10.40;;;9.70;52.20;;;;;;5052286;28;20380;-78
2022/03/06 12:20:25;;;;;;;20.15;11.25;;;9.90;52.70;;;;;;5053445;28;20036;-78
2022/03/06 12:23:02;;;;;;;25.95;11.77;;;9.90;51.50;;;;;;5052290;28;20428;-78
2022/03/06 12:25:31;;;;;;;21.33;10.68;;;9.90;50.50;;;;;;5052074;28;20399;-78
2022/03/06 12:28:03;;;;;;;24.73;9.93;;;9.90;50.60;;;;;;5053546;28;20044;-78
2022/03/06 12:30:30;;;;;;;21.85;12.57;;;10.00;51.40;;;;;;5053577;28;20025;-78
2022/03/06 12:32:56;;;;;;;18.83;10.35;;;10.20;51.50;;;;;;5061427;28;20505;-78
2022/03/06 12:35:25;;;;;;;19.65;10.88;;;10.20;49.80;;;;;;5072086;28;20466;-77
2022/03/06 12:37:51;;;;;;;18.38;10.93;;;10.10;49.20;;;;;;5073446;28;20024;-78
2022/03/06 12:40:20;;;;;;;19.08;11.60;;;10.20;49.80;;;;;;5072351;28;20111;-78